Terminal Aerodrome Forecast
Issued by NWS

Home | Current Version | Previous Version | Text Only | Print | Product List | Glossary On
Versions: 1 2 3 4 5 6 7 8 9 10 11 12 13 14 15 16 17 18
631
FTUS43 KDLH 241730
TAFHIB
TAF
KHIB 241730Z 2418/2518 17007KT P6SM BKN200
     FM250100 09008KT 2SM -SN OVC023
     FM250300 08009KT 1/4SM +SN OVC005
     FM250800 35007KT 1SM -SN OVC013
     FM251100 31008KT 4SM -SN OVC013
     FM251300 29010KT P6SM BKN013=

USA.gov is the U.S. government's official web portal to all federal, state and local government web resources and services.